createdAt,value
2023-05-19T00:01:48.151Z,9.18
2023-05-19T00:04:15.303Z,9.10
2023-05-19T00:06:42.280Z,9.14
2023-05-19T00:09:09.914Z,9.12
2023-05-19T00:11:37.517Z,9.05
2023-05-19T00:14:05.925Z,9.12
2023-05-19T00:16:32.798Z,9.02
2023-05-19T00:19:02.629Z,9.01
2023-05-19T00:21:29.555Z,9.00
2023-05-19T00:23:56.170Z,8.99
2023-05-19T00:26:23.121Z,9.00
2023-05-19T00:28:49.921Z,8.90
2023-05-19T00:31:16.429Z,8.81
2023-05-19T00:33:43.140Z,8.63
2023-05-19T00:36:09.763Z,8.44
2023-05-19T00:38:36.691Z,8.47
2023-05-19T00:41:03.808Z,8.38
2023-05-19T00:43:30.439Z,8.26
2023-05-19T00:45:57.539Z,8.05
2023-05-19T00:48:25.126Z,8.18
2023-05-19T00:50:52.276Z,8.06
2023-05-19T00:53:19.235Z,7.91
2023-05-19T00:55:45.888Z,7.83
2023-05-19T00:58:12.418Z,7.73
2023-05-19T01:00:39.833Z,7.82
2023-05-19T01:03:13.037Z,7.72
2023-05-19T01:05:44.652Z,7.80
2023-05-19T01:08:11.181Z,7.54
2023-05-19T01:10:37.806Z,7.54
2023-05-19T01:13:04.721Z,7.71
2023-05-19T01:15:33.822Z,7.50
2023-05-19T01:18:12.929Z,7.50
2023-05-19T01:20:42.680Z,7.49
2023-05-19T01:23:18.385Z,7.48
2023-05-19T01:25:58.470Z,7.53
2023-05-19T01:28:42.258Z,7.53
2023-05-19T01:31:09.061Z,7.40
2023-05-19T01:33:35.638Z,7.45
2023-05-19T01:36:03.610Z,7.61
2023-05-19T01:38:30.367Z,7.54
2023-05-19T01:40:56.895Z,7.56
2023-05-19T01:43:24.911Z,7.58
2023-05-19T01:45:51.485Z,7.50
2023-05-19T01:48:18.198Z,7.82
2023-05-19T01:50:44.852Z,7.99
2023-05-19T01:53:11.498Z,8.11
2023-05-19T01:55:44.598Z,8.06
2023-05-19T01:58:48.040Z,8.04
2023-05-19T02:01:20.302Z,8.02
2023-05-19T02:04:10.048Z,8.03
2023-05-19T02:07:12.042Z,8.14
2023-05-19T02:09:50.604Z,8.01
2023-05-19T02:12:25.053Z,8.00
2023-05-19T02:15:05.178Z,8.19
2023-05-19T02:17:33.191Z,8.23
2023-05-19T02:20:00.020Z,8.31
2023-05-19T02:22:26.813Z,8.31
2023-05-19T02:24:53.391Z,8.32
2023-05-19T02:27:19.967Z,8.23
2023-05-19T02:29:46.499Z,8.24
2023-05-19T02:32:13.276Z,8.36
2023-05-19T02:34:39.883Z,8.48
2023-05-19T02:37:07.795Z,8.56
2023-05-19T02:39:35.303Z,8.69
2023-05-19T02:42:01.908Z,8.69
2023-05-19T02:44:28.547Z,8.61
2023-05-19T02:46:55.115Z,8.50
2023-05-19T02:49:21.657Z,8.54
2023-05-19T02:51:48.194Z,8.55
2023-05-19T02:54:14.720Z,8.45
2023-05-19T02:56:41.229Z,8.37
2023-05-19T02:59:07.824Z,8.51
2023-05-19T03:01:34.390Z,8.57
2023-05-19T03:04:01.113Z,8.69
2023-05-19T03:06:28.257Z,8.64
2023-05-19T03:08:54.753Z,8.75
2023-05-19T03:11:23.150Z,8.82
2023-05-19T03:13:49.730Z,8.86
2023-05-19T03:16:16.239Z,8.89
2023-05-19T03:18:43.019Z,8.93
2023-05-19T03:21:09.557Z,8.75
2023-05-19T03:23:36.328Z,8.82
2023-05-19T03:26:03.019Z,8.70
2023-05-19T03:28:29.654Z,8.76
2023-05-19T03:30:56.232Z,8.89
2023-05-19T03:33:23.953Z,8.94
2023-05-19T03:35:50.634Z,9.00
2023-05-19T03:38:17.148Z,8.93
2023-05-19T03:40:44.992Z,9.01
2023-05-19T03:43:11.649Z,9.05
2023-05-19T03:45:38.439Z,9.00
2023-05-19T03:48:06.004Z,8.98
2023-05-19T03:50:34.096Z,9.03
2023-05-19T03:53:00.958Z,9.09
2023-05-19T03:55:29.840Z,9.05
2023-05-19T03:57:57.099Z,9.02
2023-05-19T04:00:23.882Z,9.13
2023-05-19T04:02:51.213Z,9.20
2023-05-19T04:05:17.917Z,9.09
2023-05-19T04:07:46.611Z,9.12
2023-05-19T04:10:13.227Z,9.18
2023-05-19T04:12:39.852Z,9.18
2023-05-19T04:15:06.976Z,9.16
2023-05-19T04:17:33.612Z,9.21
2023-05-19T04:20:00.352Z,9.33
2023-05-19T04:22:26.858Z,9.34
2023-05-19T04:24:53.407Z,9.36
2023-05-19T04:27:19.999Z,9.49
2023-05-19T04:29:48.211Z,9.49
2023-05-19T04:32:17.595Z,9.66
2023-05-19T04:34:46.395Z,9.61
2023-05-19T04:37:14.126Z,9.61
2023-05-19T04:39:45.132Z,9.75
2023-05-19T04:42:11.861Z,9.69
2023-05-19T04:44:40.159Z,9.75
2023-05-19T04:47:10.287Z,9.77
2023-05-19T04:49:39.895Z,9.72
2023-05-19T04:52:07.545Z,9.76
2023-05-19T04:54:37.667Z,9.85
2023-05-19T04:57:04.489Z,9.81
2023-05-19T04:59:31.179Z,9.94
2023-05-19T05:01:57.939Z,9.93
2023-05-19T05:04:24.567Z,10.12
2023-05-19T05:06:51.304Z,10.03
2023-05-19T05:09:17.863Z,10.17
2023-05-19T05:11:44.710Z,10.35
2023-05-19T05:14:11.494Z,10.23
2023-05-19T05:16:38.345Z,10.35
2023-05-19T05:19:05.228Z,10.17
2023-05-19T05:21:32.002Z,10.21
2023-05-19T05:23:58.731Z,10.29
2023-05-19T05:26:26.479Z,10.35
2023-05-19T05:28:53.025Z,10.60
2023-05-19T05:31:19.602Z,10.44
2023-05-19T05:33:46.209Z,10.37
2023-05-19T05:36:13.656Z,10.42
2023-05-19T05:38:40.219Z,10.54
2023-05-19T05:41:06.860Z,10.53
2023-05-19T05:43:33.433Z,10.48
2023-05-19T05:46:00.246Z,10.51
2023-05-19T05:48:27.312Z,10.72
2023-05-19T05:50:54.544Z,10.57
2023-05-19T05:53:21.448Z,10.66
2023-05-19T05:55:48.276Z,10.63
2023-05-19T05:58:14.989Z,10.79
2023-05-19T06:00:45.277Z,10.83
2023-05-19T06:03:12.067Z,10.92
2023-05-19T06:05:39.146Z,10.99
2023-05-19T06:08:06.053Z,11.13
2023-05-19T06:10:33.270Z,10.98
2023-05-19T06:13:00.117Z,11.10
2023-05-19T06:15:26.814Z,11.00
2023-05-19T06:17:54.627Z,11.17
2023-05-19T06:20:21.341Z,11.23
2023-05-19T06:22:47.894Z,11.35
2023-05-19T06:25:14.519Z,11.68
2023-05-19T06:27:41.044Z,11.82
2023-05-19T06:30:08.636Z,11.76
2023-05-19T06:32:35.329Z,11.87
2023-05-19T06:35:02.010Z,11.78
2023-05-19T06:37:28.527Z,11.74
2023-05-19T06:39:55.387Z,12.03
2023-05-19T06:42:22.702Z,11.93
2023-05-19T06:44:49.913Z,11.90
2023-05-19T06:47:17.037Z,11.98
2023-05-19T06:49:44.531Z,12.32
2023-05-19T06:52:11.497Z,12.13
2023-05-19T06:54:38.150Z,12.26
2023-05-19T06:57:04.874Z,12.47
2023-05-19T06:59:31.479Z,12.47
2023-05-19T07:01:58.134Z,12.64
2023-05-19T07:04:24.717Z,12.63
2023-05-19T07:06:51.274Z,12.79
2023-05-19T07:09:17.844Z,12.38
2023-05-19T07:11:44.978Z,12.58
2023-05-19T07:14:11.504Z,12.26
2023-05-19T07:16:38.084Z,12.48
2023-05-19T07:19:04.696Z,12.80
2023-05-19T07:21:31.450Z,12.73
2023-05-19T07:23:57.970Z,12.79
2023-05-19T07:26:24.466Z,12.67
2023-05-19T07:28:51.847Z,13.04
2023-05-19T07:31:18.558Z,13.25
2023-05-19T07:33:45.177Z,13.67
2023-05-19T07:36:11.822Z,13.42
2023-05-19T07:38:38.473Z,13.41
2023-05-19T07:41:04.994Z,13.83
2023-05-19T07:43:31.761Z,13.82
2023-05-19T07:45:58.544Z,14.09
2023-05-19T07:48:25.952Z,13.79
2023-05-19T07:50:52.746Z,13.77
2023-05-19T07:53:20.471Z,13.93
2023-05-19T07:55:46.999Z,13.95
2023-05-19T07:58:13.525Z,14.23
2023-05-19T08:00:42.988Z,13.89
2023-05-19T08:03:09.979Z,14.10
2023-05-19T08:05:36.697Z,13.61
2023-05-19T08:08:03.654Z,13.83
2023-05-19T08:10:30.466Z,13.63
2023-05-19T08:12:57.055Z,13.52
2023-05-19T08:15:23.704Z,13.48
2023-05-19T08:17:50.265Z,13.65
2023-05-19T08:20:16.828Z,13.58
2023-05-19T08:22:43.447Z,13.75
2023-05-19T08:25:10.311Z,14.02
2023-05-19T08:27:36.855Z,14.41
2023-05-19T08:30:03.497Z,14.11
2023-05-19T08:32:30.071Z,14.26
2023-05-19T08:34:56.633Z,14.29
2023-05-19T08:37:23.258Z,13.98
2023-05-19T08:39:49.813Z,14.70
2023-05-19T08:42:16.343Z,13.85
2023-05-19T08:44:44.011Z,14.01
2023-05-19T08:47:13.840Z,14.58
2023-05-19T08:49:46.711Z,14.19
2023-05-19T08:52:33.102Z,15.11
2023-05-19T08:55:05.920Z,14.86
2023-05-19T08:57:32.912Z,15.24
2023-05-19T08:59:59.672Z,15.43
2023-05-19T09:02:26.546Z,15.12
2023-05-19T09:04:53.187Z,15.73
2023-05-19T09:07:19.746Z,15.65
2023-05-19T09:09:46.574Z,16.29
2023-05-19T09:12:13.595Z,16.06
2023-05-19T09:14:40.333Z,15.61
2023-05-19T09:17:07.116Z,15.97
2023-05-19T09:19:33.819Z,15.93
2023-05-19T09:22:01.246Z,16.13
2023-05-19T09:24:28.036Z,16.24
2023-05-19T09:26:59.898Z,16.22
2023-05-19T09:29:26.888Z,15.73
2023-05-19T09:31:54.781Z,16.00
2023-05-19T09:34:22.280Z,15.72
2023-05-19T09:36:53.369Z,15.74
2023-05-19T09:39:21.235Z,16.43
2023-05-19T09:41:47.952Z,16.28
2023-05-19T09:44:28.784Z,16.73
2023-05-19T09:46:55.396Z,16.03
2023-05-19T09:49:25.789Z,16.61
2023-05-19T09:51:57.233Z,16.54
2023-05-19T09:54:24.335Z,16.70
2023-05-19T09:57:01.129Z,16.74
2023-05-19T09:59:30.663Z,16.95
2023-05-19T10:01:59.957Z,16.94
2023-05-19T10:04:27.465Z,17.08
2023-05-19T10:06:54.874Z,16.51
2023-05-19T10:09:25.297Z,16.53
2023-05-19T10:11:53.099Z,16.96
2023-05-19T10:14:24.578Z,17.16
2023-05-19T10:16:52.284Z,17.52
2023-05-19T10:19:23.160Z,16.22
2023-05-19T10:21:49.996Z,16.07
2023-05-19T10:24:16.529Z,15.95
2023-05-19T10:27:07.432Z,16.15
2023-05-19T10:29:36.570Z,15.72
2023-05-19T10:32:06.928Z,16.12
2023-05-19T10:35:03.914Z,16.65
2023-05-19T10:37:36.746Z,16.77
2023-05-19T10:40:17.119Z,16.57
2023-05-19T10:43:21.224Z,17.26
2023-05-19T10:45:49.264Z,16.52
2023-05-19T10:48:16.698Z,15.98
2023-05-19T10:50:46.840Z,15.82
2023-05-19T10:53:18.174Z,16.13
2023-05-19T10:55:59.637Z,16.75
2023-05-19T10:58:39.799Z,16.63
2023-05-19T11:01:17.382Z,17.31
2023-05-19T11:04:14.831Z,16.50
2023-05-19T11:06:41.796Z,17.19
2023-05-19T11:09:11.429Z,17.93
2023-05-19T11:11:48.297Z,17.82
2023-05-19T11:14:23.101Z,18.35
2023-05-19T11:16:51.046Z,17.81
2023-05-19T11:19:32.429Z,18.47
2023-05-19T11:22:08.649Z,18.46
2023-05-19T11:24:52.262Z,18.91
2023-05-19T11:27:24.471Z,18.13
2023-05-19T11:29:51.757Z,18.37
2023-05-19T11:32:18.516Z,18.44
2023-05-19T11:34:45.866Z,17.29
2023-05-19T11:37:12.385Z,16.97
2023-05-19T11:39:39.583Z,17.67
2023-05-19T11:42:06.503Z,17.62
2023-05-19T11:44:33.043Z,17.83
2023-05-19T11:47:00.169Z,18.00
2023-05-19T11:49:29.438Z,17.12
2023-05-19T11:51:56.290Z,16.86
2023-05-19T11:54:29.302Z,17.22
2023-05-19T11:56:56.410Z,17.44
2023-05-19T11:59:35.450Z,17.39
2023-05-19T12:02:24.824Z,17.82
2023-05-19T12:04:51.813Z,17.63
2023-05-19T12:07:19.479Z,17.70
2023-05-19T12:09:46.659Z,17.66
2023-05-19T12:12:17.047Z,17.50
2023-05-19T12:14:43.671Z,17.26
2023-05-19T12:17:13.988Z,17.87
2023-05-19T12:19:41.560Z,18.37
2023-05-19T12:22:08.288Z,18.98
2023-05-19T12:24:35.627Z,19.81
2023-05-19T12:27:13.670Z,20.56
2023-05-19T12:29:40.313Z,19.52
2023-05-19T12:32:10.202Z,20.41
2023-05-19T12:34:37.956Z,20.58
2023-05-19T12:37:07.269Z,20.57
2023-05-19T12:39:33.906Z,20.42
2023-05-19T12:42:04.661Z,19.78
2023-05-19T12:44:31.524Z,20.02
2023-05-19T12:46:59.525Z,19.58
2023-05-19T12:49:26.228Z,18.75
2023-05-19T12:51:53.878Z,18.82
2023-05-19T12:54:23.253Z,18.17
2023-05-19T12:56:53.282Z,18.09
2023-05-19T12:59:37.421Z,18.35
2023-05-19T13:02:04.883Z,19.73
2023-05-19T13:04:31.605Z,20.67
2023-05-19T13:06:58.139Z,19.70
2023-05-19T13:09:24.725Z,20.34
2023-05-19T13:11:52.207Z,20.13
2023-05-19T13:14:18.742Z,19.30
2023-05-19T13:16:48.658Z,20.19
2023-05-19T13:19:24.858Z,19.99
2023-05-19T13:21:52.496Z,20.86
2023-05-19T13:24:19.070Z,19.87
2023-05-19T13:26:45.640Z,19.68
2023-05-19T13:29:12.199Z,18.64
2023-05-19T13:31:38.912Z,19.18
2023-05-19T13:34:05.607Z,19.26
2023-05-19T13:36:33.381Z,20.07
2023-05-19T13:39:00.840Z,21.96
2023-05-19T13:41:29.265Z,22.33
2023-05-19T13:44:01.809Z,21.10
2023-05-19T13:46:40.623Z,19.84
2023-05-19T13:49:11.124Z,20.08
2023-05-19T13:51:37.733Z,20.28
2023-05-19T13:54:04.970Z,19.73
2023-05-19T13:56:31.854Z,20.21
2023-05-19T13:58:58.470Z,20.77
2023-05-19T14:01:25.166Z,20.22
2023-05-19T14:03:52.543Z,19.89
2023-05-19T14:06:19.590Z,20.29
2023-05-19T14:08:46.110Z,20.18
2023-05-19T14:11:19.891Z,20.22
2023-05-19T14:13:52.764Z,21.85
2023-05-19T14:16:20.437Z,20.93
2023-05-19T14:18:47.057Z,19.86
2023-05-19T14:21:13.897Z,20.28
2023-05-19T14:23:40.479Z,18.93
2023-05-19T14:26:07.407Z,19.30
2023-05-19T14:28:33.994Z,19.79
2023-05-19T14:31:00.692Z,19.87
2023-05-19T14:33:27.204Z,20.16
2023-05-19T14:35:53.808Z,20.73
2023-05-19T14:38:20.433Z,19.95
2023-05-19T14:40:48.432Z,19.39
2023-05-19T14:43:14.984Z,18.85
2023-05-19T14:45:44.215Z,19.26
2023-05-19T14:48:11.825Z,19.96
2023-05-19T14:50:38.690Z,18.98
2023-05-19T14:53:05.431Z,19.10
2023-05-19T14:55:32.177Z,19.31
2023-05-19T14:57:58.802Z,19.79
2023-05-19T15:00:28.534Z,19.74
2023-05-19T15:02:55.169Z,20.48
2023-05-19T15:05:23.975Z,19.40
2023-05-19T15:07:50.723Z,19.26
2023-05-19T15:10:19.835Z,18.90
2023-05-19T15:12:46.827Z,18.78
2023-05-19T15:15:14.273Z,18.51
2023-05-19T15:17:40.982Z,18.73
2023-05-19T15:20:07.911Z,18.27
2023-05-19T15:22:34.617Z,18.29
2023-05-19T15:25:01.231Z,17.91
2023-05-19T15:27:27.772Z,17.85
2023-05-19T15:29:54.348Z,17.69
2023-05-19T15:32:20.932Z,17.70
2023-05-19T15:34:47.588Z,17.70
2023-05-19T15:37:14.136Z,17.69
2023-05-19T15:39:40.694Z,17.86
2023-05-19T15:42:07.181Z,17.76
2023-05-19T15:44:33.712Z,18.03
2023-05-19T15:47:00.379Z,17.99
2023-05-19T15:49:26.887Z,17.91
2023-05-19T15:51:53.450Z,18.07
2023-05-19T15:54:20.045Z,18.01
2023-05-19T15:56:46.556Z,17.91
2023-05-19T15:59:13.416Z,17.94
2023-05-19T16:01:40.024Z,17.49
2023-05-19T16:04:06.758Z,17.38
2023-05-19T16:06:33.331Z,17.39
2023-05-19T16:08:59.889Z,17.35
2023-05-19T16:11:26.747Z,18.34
2023-05-19T16:13:53.389Z,18.99
2023-05-19T16:16:20.016Z,18.80
2023-05-19T16:18:46.601Z,19.35
2023-05-19T16:21:13.289Z,19.49
2023-05-19T16:23:39.816Z,19.56
2023-05-19T16:26:06.337Z,19.21
2023-05-19T16:28:32.932Z,19.18
2023-05-19T16:31:00.141Z,18.90
2023-05-19T16:33:27.309Z,18.65
2023-05-19T16:35:53.912Z,18.71
2023-05-19T16:38:20.545Z,18.75
2023-05-19T16:40:47.081Z,18.67
2023-05-19T16:43:13.604Z,19.28
2023-05-19T16:45:40.179Z,18.91
2023-05-19T16:48:06.738Z,19.34
2023-05-19T16:50:33.494Z,18.96
2023-05-19T16:53:00.156Z,18.27
2023-05-19T16:55:26.817Z,18.06
2023-05-19T16:57:53.402Z,17.57
2023-05-19T17:00:20.111Z,17.41
2023-05-19T17:02:46.820Z,17.43
2023-05-19T17:05:13.500Z,17.30
2023-05-19T17:07:40.102Z,17.06
2023-05-19T17:10:08.384Z,16.92
2023-05-19T17:12:34.960Z,16.76
2023-05-19T17:15:01.501Z,16.64
2023-05-19T17:17:28.205Z,16.67
2023-05-19T17:19:54.906Z,16.62
2023-05-19T17:22:21.479Z,16.68
2023-05-19T17:24:48.120Z,16.70
2023-05-19T17:27:15.291Z,16.78
2023-05-19T17:29:41.911Z,16.65
2023-05-19T17:32:08.534Z,16.50
2023-05-19T17:34:35.197Z,16.57
2023-05-19T17:37:01.782Z,16.29
2023-05-19T17:39:28.304Z,16.30
2023-05-19T17:41:54.908Z,16.25
2023-05-19T17:44:21.494Z,16.18
2023-05-19T17:46:48.168Z,16.15
2023-05-19T17:49:15.368Z,16.00
2023-05-19T17:51:42.147Z,15.91
2023-05-19T17:54:08.859Z,15.84
2023-05-19T17:56:35.388Z,15.80
2023-05-19T17:59:02.211Z,15.67
2023-05-19T18:01:28.939Z,15.76
2023-05-19T18:03:55.997Z,15.61
2023-05-19T18:06:23.203Z,15.57
2023-05-19T18:08:51.505Z,15.48
2023-05-19T18:11:18.505Z,15.44
2023-05-19T18:13:45.105Z,15.41
2023-05-19T18:16:11.809Z,15.50
2023-05-19T18:18:41.071Z,15.41
2023-05-19T18:21:07.657Z,15.31
2023-05-19T18:23:34.202Z,15.28
2023-05-19T18:26:00.917Z,15.18
2023-05-19T18:28:29.625Z,15.17
2023-05-19T18:31:03.928Z,15.10
2023-05-19T18:33:31.306Z,15.09
2023-05-19T18:35:58.181Z,15.01
2023-05-19T18:38:24.814Z,14.95
2023-05-19T18:40:51.485Z,14.88
2023-05-19T18:43:21.175Z,14.84
2023-05-19T18:45:47.993Z,14.83
2023-05-19T18:48:15.409Z,14.84
2023-05-19T18:50:44.032Z,14.78
2023-05-19T18:53:11.632Z,14.71
2023-05-19T18:55:38.620Z,14.71
2023-05-19T18:58:06.052Z,14.62
2023-05-19T19:00:33.127Z,14.63
2023-05-19T19:03:00.034Z,14.68
2023-05-19T19:05:26.626Z,14.65
2023-05-19T19:07:53.381Z,14.61
2023-05-19T19:10:20.017Z,14.61
2023-05-19T19:12:46.649Z,14.56
2023-05-19T19:15:13.246Z,14.53
2023-05-19T19:17:42.368Z,14.45
2023-05-19T19:20:09.331Z,14.46
2023-05-19T19:22:36.012Z,14.48
2023-05-19T19:25:02.539Z,14.40
2023-05-19T19:27:31.229Z,14.35
2023-05-19T19:29:58.680Z,14.27
2023-05-19T19:32:25.640Z,14.30
2023-05-19T19:34:55.095Z,14.18
2023-05-19T19:37:21.700Z,14.26
2023-05-19T19:39:48.215Z,14.27
2023-05-19T19:42:14.810Z,14.27
2023-05-19T19:44:41.419Z,14.28
2023-05-19T19:47:08.022Z,14.33
2023-05-19T19:49:34.923Z,14.36
2023-05-19T19:52:01.549Z,14.34
2023-05-19T19:54:28.667Z,14.26
2023-05-19T19:56:55.191Z,14.25
2023-05-19T19:59:21.841Z,14.27
2023-05-19T20:01:48.453Z,14.26
2023-05-19T20:04:15.409Z,14.21
2023-05-19T20:06:42.166Z,14.20
2023-05-19T20:09:08.740Z,14.24
2023-05-19T20:11:35.287Z,14.20
2023-05-19T20:14:01.906Z,14.18
2023-05-19T20:16:28.724Z,14.23
2023-05-19T20:18:55.401Z,14.25
2023-05-19T20:21:22.050Z,14.23
2023-05-19T20:23:50.379Z,14.20
2023-05-19T20:26:17.463Z,14.25
2023-05-19T20:28:44.084Z,14.17
2023-05-19T20:31:10.688Z,14.23
2023-05-19T20:33:37.265Z,14.17
2023-05-19T20:36:05.538Z,14.22
2023-05-19T20:38:32.077Z,14.22
2023-05-19T20:40:58.634Z,14.18
2023-05-19T20:43:25.259Z,14.23
2023-05-19T20:45:52.234Z,14.18
2023-05-19T20:48:18.848Z,14.22
2023-05-19T20:50:45.763Z,14.19
2023-05-19T20:53:12.287Z,14.18
2023-05-19T20:55:39.009Z,14.20
2023-05-19T20:58:05.779Z,14.19
2023-05-19T21:00:32.641Z,14.18
2023-05-19T21:02:59.677Z,14.19
2023-05-19T21:05:26.321Z,14.14
2023-05-19T21:07:52.910Z,14.06
2023-05-19T21:10:19.480Z,14.05
2023-05-19T21:12:46.775Z,14.05
2023-05-19T21:15:13.377Z,14.06
2023-05-19T21:17:39.981Z,14.04
2023-05-19T21:20:07.132Z,13.95
2023-05-19T21:22:35.599Z,13.91
2023-05-19T21:25:02.163Z,13.69
2023-05-19T21:27:28.801Z,13.70
2023-05-19T21:29:55.476Z,13.66
2023-05-19T21:32:22.048Z,13.63
2023-05-19T21:34:48.665Z,13.54
2023-05-19T21:37:17.226Z,13.48
2023-05-19T21:39:44.091Z,13.46
2023-05-19T21:42:10.646Z,13.45
2023-05-19T21:44:37.188Z,13.51
2023-05-19T21:47:03.772Z,13.48
2023-05-19T21:49:31.311Z,13.47
2023-05-19T21:51:58.104Z,13.48
2023-05-19T21:54:24.652Z,13.45
2023-05-19T21:56:51.240Z,13.48
2023-05-19T21:59:17.765Z,13.42
2023-05-19T22:01:44.478Z,13.44
2023-05-19T22:04:11.516Z,13.40
2023-05-19T22:06:38.135Z,13.40
2023-05-19T22:09:04.685Z,13.45
2023-05-19T22:11:31.426Z,13.42
2023-05-19T22:13:57.997Z,13.48
2023-05-19T22:16:24.600Z,13.42
2023-05-19T22:18:51.664Z,13.36
2023-05-19T22:21:18.188Z,13.39
2023-05-19T22:23:44.780Z,13.37
2023-05-19T22:26:11.357Z,13.34
2023-05-19T22:28:37.867Z,13.37
2023-05-19T22:31:04.536Z,13.30
2023-05-19T22:33:31.211Z,13.36
2023-05-19T22:35:57.893Z,13.34
2023-05-19T22:38:24.401Z,13.30
2023-05-19T22:40:51.006Z,13.26
2023-05-19T22:43:17.596Z,13.21
2023-05-19T22:45:44.175Z,13.22
2023-05-19T22:48:11.516Z,13.17
2023-05-19T22:50:38.193Z,13.21
2023-05-19T22:53:04.712Z,13.20
2023-05-19T22:55:31.527Z,13.20
2023-05-19T22:57:58.252Z,13.16
2023-05-19T23:00:24.768Z,13.14
2023-05-19T23:02:51.350Z,13.17
2023-05-19T23:05:17.885Z,13.16
2023-05-19T23:07:44.446Z,13.09
2023-05-19T23:10:11.186Z,13.16
2023-05-19T23:12:37.705Z,13.16
2023-05-19T23:15:04.660Z,13.11
2023-05-19T23:17:31.289Z,13.08
2023-05-19T23:19:57.835Z,13.07
2023-05-19T23:22:24.399Z,13.04
2023-05-19T23:24:51.113Z,13.09
2023-05-19T23:27:17.633Z,13.08
2023-05-19T23:29:50.442Z,13.02
2023-05-19T23:32:17.063Z,13.04
2023-05-19T23:34:43.640Z,12.99
2023-05-19T23:37:10.203Z,13.05
2023-05-19T23:39:38.226Z,13.06
2023-05-19T23:42:05.722Z,13.07
2023-05-19T23:44:32.317Z,13.03
2023-05-19T23:46:59.035Z,13.01
2023-05-19T23:49:25.611Z,13.05
2023-05-19T23:51:52.225Z,12.99
2023-05-19T23:54:18.808Z,12.96
2023-05-19T23:56:45.373Z,12.85
2023-05-19T23:59:11.886Z,12.87
